Time;durP1;ratioP1;P1;durP2;ratioP2;P2;SDS_P1;SDS_P2;PMS_P1;PMS_P2;Temp;Humidity;BMP_temperature;BMP_pressure;BME280_temperature;BME280_humidity;BME280_pressure;Samples;Min_cycle;Max_cycle;Signal;HPM_P1;HPM_P2
2021/01/06 00:02:11;;;;;;;0.40;0.20;;;;;;;;;;5013496;28;20018;-68
2021/01/06 00:04:37;;;;;;;0.20;0.20;;;;;;;;;;5013008;28;20061;-68
2021/01/06 00:07:03;;;;;;;0.50;0.20;;;;;;;;;;5013235;28;20038;-68
2021/01/06 00:09:29;;;;;;;0.10;0.10;;;;;;;;;;5013217;28;20387;-68
2021/01/06 00:11:55;;;;;;;0.87;0.23;;;;;;;;;;5013047;28;20479;-68
2021/01/06 00:14:21;;;;;;;0.20;0.17;;;;;;;;;;5012989;28;20467;-68
2021/01/06 00:16:52;;;;;;;0.70;0.20;;;;;;;;;;5012974;28;20430;-68
2021/01/06 00:19:18;;;;;;;0.23;0.20;;;;;;;;;;5013069;28;20053;-68
2021/01/06 00:21:44;;;;;;;0.43;0.30;;;;;;;;;;5012954;28;20553;-69
2021/01/06 00:24:10;;;;;;;0.93;0.20;;;;;;;;;;5012936;28;20022;-68
2021/01/06 00:26:36;;;;;;;0.70;0.30;;;;;;;;;;5012731;28;20041;-68
2021/01/06 00:29:03;;;;;;;1.10;0.33;;;;;;;;;;5013009;28;20018;-68
2021/01/06 00:31:29;;;;;;;0.93;0.50;;;;;;;;;;5013066;28;20029;-68
2021/01/06 00:33:55;;;;;;;1.67;0.67;;;;;;;;;;5013085;28;20518;-68
2021/01/06 00:36:21;;;;;;;1.27;0.70;;;;;;;;;;5012860;28;20026;-68
2021/01/06 00:38:51;;;;;;;0.77;0.60;;;;;;;;;;5012935;28;20391;-68
2021/01/06 00:41:27;;;;;;;1.43;0.50;;;;;;;;;;5012491;28;20022;-67
2021/01/06 00:43:53;;;;;;;2.40;0.60;;;;;;;;;;5012971;28;20049;-68
2021/01/06 00:46:20;;;;;;;2.90;0.70;;;;;;;;;;5012591;28;20030;-68
2021/01/06 00:48:46;;;;;;;0.87;0.50;;;;;;;;;;5012687;28;20022;-68
2021/01/06 00:51:12;;;;;;;0.40;0.30;;;;;;;;;;5012823;28;20053;-67
2021/01/06 00:53:39;;;;;;;0.90;0.37;;;;;;;;;;5012701;28;20029;-68
2021/01/06 00:56:05;;;;;;;0.23;0.17;;;;;;;;;;5012668;28;20026;-68
2021/01/06 00:58:31;;;;;;;0.53;0.20;;;;;;;;;;5012645;28;20475;-68
2021/01/06 01:00:57;;;;;;;0.17;0.17;;;;;;;;;;5012800;28;20033;-68
2021/01/06 01:03:23;;;;;;;0.60;0.40;;;;;;;;;;5015429;28;20022;-68
2021/01/06 01:05:49;;;;;;;0.83;0.47;;;;;;;;;;5014527;28;20400;-68
2021/01/06 01:08:15;;;;;;;1.50;0.70;;;;;;;;;;5015983;28;20356;-68
2021/01/06 01:10:43;;;;;;;0.70;0.47;;;;;;;;;;5015777;28;20029;-68
2021/01/06 01:13:10;;;;;;;0.90;0.50;;;;;;;;;;5015712;28;20080;-68
2021/01/06 01:15:38;;;;;;;0.60;0.50;;;;;;;;;;5016041;28;20018;-68
2021/01/06 01:18:05;;;;;;;0.50;0.50;;;;;;;;;;5015927;28;20054;-67
2021/01/06 01:20:31;;;;;;;1.17;0.53;;;;;;;;;;5015988;28;20022;-68
2021/01/06 01:22:57;;;;;;;1.00;0.50;;;;;;;;;;5015820;28;20028;-68
2021/01/06 01:25:25;;;;;;;1.37;0.50;;;;;;;;;;5015548;28;20038;-68
2021/01/06 01:27:52;;;;;;;2.70;0.67;;;;;;;;;;5015547;28;20030;-67
2021/01/06 01:30:22;;;;;;;2.10;0.90;;;;;;;;;;5015667;28;20030;-67
2021/01/06 01:32:49;;;;;;;1.57;0.70;;;;;;;;;;5015587;28;20049;-68
2021/01/06 01:35:19;;;;;;;1.67;0.50;;;;;;;;;;5015275;28;20025;-67
2021/01/06 01:37:46;;;;;;;1.27;0.60;;;;;;;;;;5014580;28;20083;-68
2021/01/06 01:40:16;;;;;;;0.97;0.60;;;;;;;;;;5015019;28;20062;-67
2021/01/06 01:42:42;;;;;;;1.47;0.57;;;;;;;;;;5015560;28;20026;-67
2021/01/06 01:45:08;;;;;;;0.83;0.40;;;;;;;;;;5015564;28;20022;-68
2021/01/06 01:47:42;;;;;;;0.33;0.20;;;;;;;;;;5015015;28;20022;-68
2021/01/06 01:50:08;;;;;;;0.50;0.30;;;;;;;;;;5015451;28;20022;-68
2021/01/06 01:52:44;;;;;;;1.40;0.30;;;;;;;;;;5015368;28;20029;-67
2021/01/06 01:55:10;;;;;;;0.37;0.20;;;;;;;;;;5015375;28;20137;-68
2021/01/06 01:57:39;;;;;;;0.53;0.30;;;;;;;;;;5014135;28;20021;-68
2021/01/06 02:00:11;;;;;;;0.87;0.20;;;;;;;;;;5012364;28;20451;-68
2021/01/06 02:02:43;;;;;;;0.98;0.28;;;;;;;;;;5012234;28;20469;-68
2021/01/06 02:05:13;;;;;;;0.40;0.17;;;;;;;;;;5013899;28;20030;-67
2021/01/06 02:08:08;;;;;;;0.50;0.20;;;;;;;;;;5015021;28;20033;-68
2021/01/06 02:10:35;;;;;;;3.20;0.30;;;;;;;;;;5010225;28;20503;-67
2021/01/06 02:13:09;;;;;;;0.37;0.27;;;;;;;;;;5014373;28;20026;-68
2021/01/06 02:15:39;;;;;;;1.80;0.30;;;;;;;;;;5014484;28;20116;-68
2021/01/06 02:18:07;;;;;;;0.57;0.20;;;;;;;;;;5014208;28;20046;-68
2021/01/06 02:20:33;;;;;;;0.83;0.23;;;;;;;;;;5014538;28;20045;-68
2021/01/06 02:23:00;;;;;;;0.23;0.20;;;;;;;;;;5014894;28;20018;-68
2021/01/06 02:25:27;;;;;;;0.47;0.20;;;;;;;;;;5014466;28;20040;-67
2021/01/06 02:27:55;;;;;;;0.37;0.20;;;;;;;;;;5013288;28;20046;-68
2021/01/06 02:30:22;;;;;;;4.90;0.30;;;;;;;;;;5014532;28;20034;-67
2021/01/06 02:32:49;;;;;;;0.40;0.20;;;;;;;;;;5014401;28;20525;-68
2021/01/06 02:35:15;;;;;;;2.53;0.20;;;;;;;;;;5014040;28;20021;-67
2021/01/06 02:37:41;;;;;;;0.90;0.27;;;;;;;;;;5014129;28;20446;-67
2021/01/06 02:40:09;;;;;;;0.20;0.20;;;;;;;;;;5014183;28;20060;-67
2021/01/06 02:42:36;;;;;;;0.50;0.33;;;;;;;;;;5014110;28;20087;-67
2021/01/06 02:45:05;;;;;;;0.97;0.30;;;;;;;;;;5013024;28;20054;-68
2021/01/06 02:47:31;;;;;;;2.03;0.40;;;;;;;;;;5014041;28;20038;-68
2021/01/06 02:49:57;;;;;;;0.80;0.50;;;;;;;;;;5014217;28;20088;-67
2021/01/06 02:52:32;;;;;;;1.37;0.80;;;;;;;;;;5013936;28;20038;-68
2021/01/06 02:54:59;;;;;;;1.50;0.80;;;;;;;;;;5013981;28;20030;-67
2021/01/06 02:57:25;;;;;;;0.87;0.47;;;;;;;;;;5013475;28;20057;-68
2021/01/06 02:59:52;;;;;;;0.80;0.37;;;;;;;;;;5013566;28;20022;-68
2021/01/06 03:02:21;;;;;;;0.60;0.30;;;;;;;;;;5013951;28;20098;-68
2021/01/06 03:05:07;;;;;;;0.97;0.27;;;;;;;;;;5013960;28;20062;-67
2021/01/06 03:07:35;;;;;;;0.93;0.30;;;;;;;;;;5013728;28;20038;-67
2021/01/06 03:10:01;;;;;;;1.03;0.40;;;;;;;;;;5014029;28;20033;-68
2021/01/06 03:12:29;;;;;;;2.13;0.40;;;;;;;;;;5014056;28;20104;-67
2021/01/06 03:14:56;;;;;;;0.50;0.30;;;;;;;;;;5013762;28;20109;-68
2021/01/06 03:17:22;;;;;;;1.33;0.30;;;;;;;;;;5013518;28;20121;-68
2021/01/06 03:19:50;;;;;;;1.80;0.40;;;;;;;;;;5014021;28;20033;-67
2021/01/06 03:22:19;;;;;;;1.17;0.37;;;;;;;;;;5014050;28;20165;-67
2021/01/06 03:24:48;;;;;;;0.73;0.30;;;;;;;;;;5013415;28;20053;-68
2021/01/06 03:27:14;;;;;;;0.83;0.43;;;;;;;;;;5013208;28;20041;-67
2021/01/06 03:29:42;;;;;;;1.60;0.40;;;;;;;;;;5013635;28;20105;-67
2021/01/06 03:32:37;;;;;;;1.30;0.40;;;;;;;;;;5013952;28;20057;-67
2021/01/06 03:35:08;;;;;;;0.87;0.27;;;;;;;;;;5009075;28;20045;-67
2021/01/06 03:37:36;;;;;;;0.93;0.30;;;;;;;;;;5013233;28;20065;-67
2021/01/06 03:40:22;;;;;;;1.27;0.37;;;;;;;;;;5013545;28;20076;-67
2021/01/06 03:42:48;;;;;;;0.83;0.37;;;;;;;;;;5013521;28;20479;-67
2021/01/06 03:45:17;;;;;;;1.17;0.50;;;;;;;;;;5013350;28;20041;-67
2021/01/06 03:47:44;;;;;;;1.30;0.37;;;;;;;;;;5013106;28;20045;-68
2021/01/06 03:50:29;;;;;;;1.87;0.50;;;;;;;;;;5013465;28;20033;-67
2021/01/06 03:53:00;;;;;;;0.43;0.30;;;;;;;;;;5013410;28;20061;-67
2021/01/06 03:55:44;;;;;;;1.33;0.37;;;;;;;;;;5013221;28;20030;-67
2021/01/06 03:58:28;;;;;;;1.60;0.63;;;;;;;;;;5013104;28;20030;-67
2021/01/06 04:00:57;;;;;;;4.43;0.67;;;;;;;;;;5013307;28;20041;-67
2021/01/06 04:03:33;;;;;;;1.37;0.60;;;;;;;;;;5013172;28;20026;-67
2021/01/06 04:06:01;;;;;;;1.53;0.40;;;;;;;;;;5013162;28;20482;-67
2021/01/06 04:08:37;;;;;;;2.00;0.30;;;;;;;;;;5013151;28;20104;-67
2021/01/06 04:11:03;;;;;;;2.13;0.30;;;;;;;;;;5013126;28;20026;-67
2021/01/06 04:13:30;;;;;;;4.80;0.30;;;;;;;;;;5013445;28;20019;-67
2021/01/06 04:15:56;;;;;;;0.97;0.30;;;;;;;;;;5013133;28;20060;-67
2021/01/06 04:18:23;;;;;;;0.63;0.20;;;;;;;;;;5013118;28;20046;-67
2021/01/06 04:20:49;;;;;;;0.57;0.30;;;;;;;;;;5012776;28;20395;-67
2021/01/06 04:23:16;;;;;;;0.80;0.20;;;;;;;;;;5013010;28;20026;-68
2021/01/06 04:25:43;;;;;;;0.57;0.30;;;;;;;;;;5013041;28;20030;-67
2021/01/06 04:28:17;;;;;;;0.73;0.30;;;;;;;;;;5013172;28;20105;-68
2021/01/06 04:30:53;;;;;;;2.20;0.50;;;;;;;;;;5013146;28;20033;-67
2021/01/06 04:33:36;;;;;;;1.27;0.30;;;;;;;;;;5013130;28;20030;-68
2021/01/06 04:36:05;;;;;;;0.93;0.30;;;;;;;;;;5013105;28;20398;-68
2021/01/06 04:38:33;;;;;;;0.47;0.17;;;;;;;;;;5016456;28;20018;-68
2021/01/06 04:41:19;;;;;;;0.23;0.20;;;;;;;;;;5016842;28;20030;-68
2021/01/06 04:43:48;;;;;;;0.70;0.30;;;;;;;;;;5016468;28;20072;-67
2021/01/06 04:46:14;;;;;;;0.83;0.43;;;;;;;;;;5016666;28;20402;-67
2021/01/06 04:48:48;;;;;;;1.80;0.70;;;;;;;;;;5016646;28;20034;-68
2021/01/06 04:51:20;;;;;;;1.80;0.57;;;;;;;;;;5016365;28;20033;-67
2021/01/06 04:53:50;;;;;;;1.07;0.67;;;;;;;;;;5016461;28;20034;-68
2021/01/06 04:56:28;;;;;;;1.93;0.40;;;;;;;;;;5016261;28;20026;-67
2021/01/06 04:58:54;;;;;;;0.87;0.40;;;;;;;;;;5016189;28;20113;-68
2021/01/06 05:01:38;;;;;;;1.40;0.60;;;;;;;;;;5016277;28;20513;-67
2021/01/06 05:04:10;;;;;;;1.90;0.80;;;;;;;;;;5016123;28;20463;-68
2021/01/06 05:06:39;;;;;;;2.90;0.60;;;;;;;;;;5015852;28;20068;-67
2021/01/06 05:09:17;;;;;;;1.93;0.60;;;;;;;;;;5015937;28;20029;-68
2021/01/06 05:11:50;;;;;;;1.03;0.60;;;;;;;;;;5016076;28;20439;-67
2021/01/06 05:14:19;;;;;;;1.83;0.67;;;;;;;;;;5016174;28;20021;-68
2021/01/06 05:16:50;;;;;;;2.47;0.80;;;;;;;;;;5015722;28;20097;-68
2021/01/06 05:19:19;;;;;;;0.93;0.47;;;;;;;;;;5015884;28;20474;-68
2021/01/06 05:21:45;;;;;;;1.50;0.60;;;;;;;;;;5015974;28;20098;-68
2021/01/06 05:24:23;;;;;;;1.00;0.50;;;;;;;;;;5015716;28;20415;-67
2021/01/06 05:27:04;;;;;;;1.57;0.60;;;;;;;;;;5015391;28;20038;-67
2021/01/06 05:29:30;;;;;;;1.33;0.50;;;;;;;;;;5015819;28;20049;-68
2021/01/06 05:31:56;;;;;;;1.03;0.70;;;;;;;;;;5015704;28;20029;-68
2021/01/06 05:34:23;;;;;;;0.90;0.70;;;;;;;;;;5015799;28;20025;-68
2021/01/06 05:36:50;;;;;;;1.57;0.70;;;;;;;;;;5015238;28;20034;-68
2021/01/06 05:39:28;;;;;;;1.23;0.70;;;;;;;;;;5015061;28;20025;-68
2021/01/06 05:42:04;;;;;;;1.10;0.80;;;;;;;;;;5015307;28;20113;-67
2021/01/06 05:44:32;;;;;;;3.00;1.30;;;;;;;;;;5015241;28;20076;-68
2021/01/06 05:46:58;;;;;;;3.90;1.70;;;;;;;;;;5014922;28;20045;-68
2021/01/06 05:49:28;;;;;;;2.67;1.20;;;;;;;;;;5013370;28;20037;-67
2021/01/06 05:51:58;;;;;;;4.70;1.37;;;;;;;;;;5014490;28;20029;-68
2021/01/06 05:54:27;;;;;;;5.07;2.17;;;;;;;;;;5014762;28;20022;-68
2021/01/06 05:57:10;;;;;;;3.07;2.00;;;;;;;;;;5015119;28;20109;-68
2021/01/06 05:59:48;;;;;;;3.60;1.50;;;;;;;;;;5015113;28;20387;-68
2021/01/06 06:02:29;;;;;;;2.47;1.30;;;;;;;;;;5014643;28;20034;-68
2021/01/06 06:05:01;;;;;;;2.37;1.33;;;;;;;;;;5014603;28;20029;-67
2021/01/06 06:07:27;;;;;;;1.67;1.30;;;;;;;;;;5015069;28;20038;-68
2021/01/06 06:10:12;;;;;;;4.67;1.87;;;;;;;;;;5014878;28;20022;-68
2021/01/06 06:12:44;;;;;;;2.63;1.37;;;;;;;;;;5014888;28;20789;-68
2021/01/06 06:15:16;;;;;;;2.47;1.50;;;;;;;;;;5014870;28;20471;-68
2021/01/06 06:18:00;;;;;;;2.77;1.43;;;;;;;;;;5014739;28;20099;-68
2021/01/06 06:20:29;;;;;;;4.20;1.40;;;;;;;;;;5014699;28;20526;-68
2021/01/06 06:22:55;;;;;;;2.27;1.03;;;;;;;;;;5014691;28;20533;-68
2021/01/06 06:25:33;;;;;;;4.30;1.00;;;;;;;;;;5014749;28;20029;-67
2021/01/06 06:28:05;;;;;;;4.57;1.10;;;;;;;;;;5014774;28;20036;-67
2021/01/06 06:30:39;;;;;;;1.80;1.20;;;;;;;;;;5014513;28;20061;-68
2021/01/06 06:33:24;;;;;;;4.90;0.97;;;;;;;;;;5014544;28;20406;-68
2021/01/06 06:35:50;;;;;;;3.00;0.90;;;;;;;;;;5014250;28;20021;-68
2021/01/06 06:38:17;;;;;;;2.33;1.10;;;;;;;;;;5014517;28;20040;-68
2021/01/06 06:41:06;;;;;;;4.80;1.43;;;;;;;;;;5014428;28;20089;-68
2021/01/06 06:43:38;;;;;;;6.87;1.70;;;;;;;;;;5014541;28;20022;-67
2021/01/06 06:46:16;;;;;;;4.17;1.67;;;;;;;;;;5014266;28;20095;-67
2021/01/06 06:48:57;;;;;;;7.50;2.97;;;;;;;;;;5014297;28;20030;-68
2021/01/06 06:51:28;;;;;;;3.97;1.80;;;;;;;;;;5014174;28;20030;-67
2021/01/06 06:54:05;;;;;;;4.50;1.77;;;;;;;;;;5014099;28;20140;-67
2021/01/06 06:56:41;;;;;;;3.63;1.90;;;;;;;;;;5013910;28;20058;-68
2021/01/06 06:59:11;;;;;;;5.40;2.90;;;;;;;;;;5014115;28;20037;-68
2021/01/06 07:01:42;;;;;;;5.43;2.97;;;;;;;;;;5014405;28;20046;-67
2021/01/06 07:04:17;;;;;;;5.53;2.63;;;;;;;;;;5014709;28;20097;-68
2021/01/06 07:06:49;;;;;;;6.63;3.10;;;;;;;;;;5013005;28;20088;-68
2021/01/06 07:09:17;;;;;;;4.93;2.70;;;;;;;;;;5012654;28;20056;-67
2021/01/06 07:11:48;;;;;;;6.20;3.27;;;;;;;;;;5013946;28;20419;-68
2021/01/06 07:14:20;;;;;;;6.77;3.20;;;;;;;;;;5013803;28;20088;-68
2021/01/06 07:16:57;;;;;;;8.07;4.05;;;;;;;;;;5013516;28;20030;-67
2021/01/06 07:19:26;;;;;;;10.70;3.97;;;;;;;;;;5013581;28;20034;-68
2021/01/06 07:22:12;;;;;;;10.10;5.67;;;;;;;;;;5013894;28;20029;-67
2021/01/06 07:24:38;;;;;;;9.10;4.93;;;;;;;;;;5013391;28;20045;-68
2021/01/06 07:27:06;;;;;;;9.23;4.00;;;;;;;;;;5013467;28;20040;-68
2021/01/06 07:29:44;;;;;;;9.23;4.20;;;;;;;;;;5013745;28;20045;-68
2021/01/06 07:32:11;;;;;;;5.97;3.87;;;;;;;;;;5013922;28;20029;-67
2021/01/06 07:34:42;;;;;;;7.60;3.10;;;;;;;;;;5013669;28;20477;-70
2021/01/06 07:37:23;;;;;;;7.43;3.23;;;;;;;;;;5013272;28;20084;-69
2021/01/06 07:39:56;;;;;;;5.40;3.30;;;;;;;;;;5012402;28;20087;-68
2021/01/06 07:42:37;;;;;;;8.03;3.70;;;;;;;;;;5013507;28;20026;-68
2021/01/06 07:45:20;;;;;;;7.50;4.00;;;;;;;;;;5013535;28;20530;-68
2021/01/06 07:47:54;;;;;;;8.07;3.93;;;;;;;;;;5013416;28;20042;-68
2021/01/06 07:50:23;;;;;;;8.73;4.50;;;;;;;;;;5013230;28;20022;-71
2021/01/06 07:52:49;;;;;;;8.80;4.90;;;;;;;;;;5013026;28;20493;-68
2021/01/06 07:55:18;;;;;;;11.63;5.07;;;;;;;;;;5012069;28;20475;-72
2021/01/06 07:57:56;;;;;;;9.80;5.60;;;;;;;;;;5010169;28;20475;-68
2021/01/06 08:00:27;;;;;;;10.43;5.87;;;;;;;;;;5010468;28;20513;-68
2021/01/06 08:02:59;;;;;;;8.93;5.93;;;;;;;;;;5011621;28;20022;-65
2021/01/06 08:05:26;;;;;;;10.87;5.80;;;;;;;;;;5012692;28;20034;-64
2021/01/06 08:08:12;;;;;;;9.00;5.47;;;;;;;;;;5013216;28;20034;-66
2021/01/06 08:10:42;;;;;;;9.87;5.13;;;;;;;;;;5013191;28;20022;-65
2021/01/06 08:13:28;;;;;;;9.07;5.63;;;;;;;;;;5015521;28;20022;-65
2021/01/06 08:15:56;;;;;;;8.77;4.10;;;;;;;;;;5016721;28;20069;-64
2021/01/06 08:18:22;;;;;;;7.80;3.60;;;;;;;;;;5016544;28;20124;-64
2021/01/06 08:20:52;;;;;;;9.40;4.23;;;;;;;;;;5016816;28;20101;-64
2021/01/06 08:23:20;;;;;;;11.77;3.93;;;;;;;;;;5015833;28;20044;-64
2021/01/06 08:26:16;;;;;;;12.77;4.07;;;;;;;;;;5014059;28;20040;-65
2021/01/06 08:28:42;;;;;;;8.23;4.43;;;;;;;;;;5010330;28;20399;-64
2021/01/06 08:31:18;;;;;;;9.47;4.43;;;;;;;;;;5015611;28;20475;-64
2021/01/06 08:33:55;;;;;;;9.77;4.43;;;;;;;;;;5016184;28;20071;-64
2021/01/06 08:36:23;;;;;;;9.20;5.10;;;;;;;;;;5015967;28;20029;-64
2021/01/06 08:39:04;;;;;;;6.97;4.20;;;;;;;;;;5016363;28;20021;-63
2021/01/06 08:41:30;;;;;;;7.20;4.47;;;;;;;;;;5015929;28;20327;-64
2021/01/06 08:43:58;;;;;;;10.30;5.40;;;;;;;;;;5015892;28;20026;-64
2021/01/06 08:46:32;;;;;;;9.17;5.20;;;;;;;;;;5016236;28;20108;-63
2021/01/06 08:49:22;;;;;;;11.03;6.03;;;;;;;;;;5015427;28;20806;-64
2021/01/06 08:51:48;;;;;;;11.03;5.43;;;;;;;;;;5015005;28;20021;-67
2021/01/06 08:54:15;;;;;;;9.37;5.40;;;;;;;;;;5016288;28;20026;-64
2021/01/06 08:56:41;;;;;;;10.27;4.80;;;;;;;;;;5016406;28;20093;-64
2021/01/06 08:59:23;;;;;;;9.23;4.73;;;;;;;;;;5016129;28;20482;-64
2021/01/06 09:01:50;;;;;;;8.00;4.82;;;;;;;;;;5016310;28;20030;-64
2021/01/06 09:04:22;;;;;;;8.97;5.13;;;;;;;;;;5016213;28;20018;-64
2021/01/06 09:06:52;;;;;;;10.87;5.00;;;;;;;;;;5015934;28;20041;-65
2021/01/06 09:09:36;;;;;;;11.87;5.00;;;;;;;;;;5015397;28;20483;-64
2021/01/06 09:12:02;;;;;;;9.50;5.27;;;;;;;;;;5019028;28;20021;-64
2021/01/06 09:14:34;;;;;;;11.87;5.60;;;;;;;;;;5035292;28;20100;-64
2021/01/06 09:17:00;;;;;;;9.00;5.67;;;;;;;;;;5034815;28;20025;-64
2021/01/06 09:19:29;;;;;;;11.87;5.63;;;;;;;;;;5034895;28;20091;-64
2021/01/06 09:21:56;;;;;;;9.47;5.67;;;;;;;;;;5034926;28;20599;-64
2021/01/06 09:24:26;;;;;;;11.03;5.90;;;;;;;;;;5034667;28;20036;-64
2021/01/06 09:26:55;;;;;;;15.13;6.33;;;;;;;;;;5034562;28;20029;-64
2021/01/06 09:29:22;;;;;;;14.03;6.63;;;;;;;;;;5035085;28;20021;-65
2021/01/06 09:31:58;;;;;;;14.17;7.20;;;;;;;;;;5034946;28;20513;-65
2021/01/06 09:34:27;;;;;;;12.03;6.97;;;;;;;;;;5035001;28;20029;-64
2021/01/06 09:36:53;;;;;;;13.10;7.83;;;;;;;;;;5034379;28;20060;-65
2021/01/06 09:39:22;;;;;;;19.13;9.07;;;;;;;;;;5034575;28;20022;-67
2021/01/06 09:41:49;;;;;;;14.67;8.50;;;;;;;;;;5034720;28;20164;-64
2021/01/06 09:44:15;;;;;;;12.80;7.57;;;;;;;;;;5032258;28;20390;-64
2021/01/06 09:46:41;;;;;;;15.10;8.17;;;;;;;;;;5034519;28;20033;-64
2021/01/06 09:49:09;;;;;;;12.00;7.57;;;;;;;;;;5033566;28;20025;-64
2021/01/06 09:51:38;;;;;;;17.37;9.77;;;;;;;;;;5032931;28;20029;-64
2021/01/06 09:54:05;;;;;;;12.40;8.50;;;;;;;;;;5033854;28;20024;-64
2021/01/06 09:56:32;;;;;;;19.63;8.27;;;;;;;;;;5033068;28;20071;-64
2021/01/06 09:58:59;;;;;;;12.00;8.00;;;;;;;;;;5033194;28;20348;-64
2021/01/06 10:01:35;;;;;;;14.90;8.17;;;;;;;;;;5033049;28;20108;-64
2021/01/06 10:04:03;;;;;;;12.80;8.00;;;;;;;;;;5033138;28;20018;-65
2021/01/06 10:06:45;;;;;;;17.10;7.93;;;;;;;;;;5032758;28;20083;-65
2021/01/06 10:09:10;;;;;;;13.03;7.50;;;;;;;;;;5033253;28;20025;-63
2021/01/06 10:11:36;;;;;;;12.80;7.00;;;;;;;;;;5032652;28;20028;-63
2021/01/06 10:14:21;;;;;;;12.47;6.47;;;;;;;;;;5032384;28;20018;-64
2021/01/06 10:16:57;;;;;;;10.53;5.63;;;;;;;;;;5032404;28;20022;-64
2021/01/06 10:19:26;;;;;;;7.87;4.67;;;;;;;;;;5031905;28;20037;-64
2021/01/06 10:21:52;;;;;;;7.43;4.17;;;;;;;;;;5033354;28;20029;-64
2021/01/06 10:24:21;;;;;;;9.37;6.33;;;;;;;;;;5033444;28;20075;-64
2021/01/06 10:27:02;;;;;;;10.23;6.00;;;;;;;;;;5034025;28;20042;-64
2021/01/06 10:29:33;;;;;;;8.00;5.57;;;;;;;;;;5033959;28;20032;-67
2021/01/06 10:32:20;;;;;;;7.50;3.63;;;;;;;;;;5033847;28;20029;-64
2021/01/06 10:34:51;;;;;;;5.57;3.23;;;;;;;;;;5030460;28;20034;-64
2021/01/06 10:37:20;;;;;;;7.23;3.60;;;;;;;;;;5034032;28;20516;-64
2021/01/06 10:39:47;;;;;;;6.93;5.13;;;;;;;;;;5033932;28;20053;-64
2021/01/06 10:42:22;;;;;;;6.57;4.20;;;;;;;;;;5033899;28;20026;-64
2021/01/06 10:44:53;;;;;;;9.33;5.87;;;;;;;;;;5033938;28;20030;-64
2021/01/06 10:47:26;;;;;;;8.70;6.47;;;;;;;;;;5033830;28;20033;-67
2021/01/06 10:50:13;;;;;;;7.67;4.97;;;;;;;;;;5034046;28;20386;-64
2021/01/06 10:52:57;;;;;;;6.53;4.00;;;;;;;;;;5032822;28;20038;-64
2021/01/06 10:55:32;;;;;;;9.77;5.97;;;;;;;;;;5034192;28;20025;-64
2021/01/06 10:58:19;;;;;;;14.03;7.80;;;;;;;;;;5034013;28;20029;-64
2021/01/06 11:01:04;;;;;;;12.83;7.57;;;;;;;;;;5032699;28;20394;-63
2021/01/06 11:03:48;;;;;;;12.63;8.07;;;;;;;;;;5033974;28;20543;-64
2021/01/06 11:06:19;;;;;;;15.33;8.93;;;;;;;;;;5033984;28;20025;-63
2021/01/06 11:09:18;;;;;;;16.50;10.40;;;;;;;;;;5033975;28;20048;-63
2021/01/06 11:11:49;;;;;;;16.40;9.73;;;;;;;;;;5021797;28;20120;-64
2021/01/06 11:14:28;;;;;;;16.07;9.13;;;;;;;;;;5033665;28;20029;-64
2021/01/06 11:16:56;;;;;;;12.87;8.57;;;;;;;;;;5033284;28;20025;-64
2021/01/06 11:19:41;;;;;;;10.70;7.60;;;;;;;;;;5033550;28;20025;-64
2021/01/06 11:22:32;;;;;;;13.77;8.30;;;;;;;;;;5033349;28;20046;-64
2021/01/06 11:25:01;;;;;;;37.10;22.23;;;;;;;;;;5032927;28;20536;-65
2021/01/06 11:27:33;;;;;;;18.20;13.50;;;;;;;;;;5033506;28;20387;-65
2021/01/06 11:30:07;;;;;;;7.63;5.70;;;;;;;;;;5033558;28;20129;-64
2021/01/06 11:32:35;;;;;;;7.73;4.13;;;;;;;;;;5033352;28;20100;-64
2021/01/06 11:35:10;;;;;;;6.43;3.87;;;;;;;;;;5033312;28;20466;-64
2021/01/06 11:37:37;;;;;;;6.00;4.00;;;;;;;;;;5033158;28;20371;-64
2021/01/06 11:40:07;;;;;;;6.43;3.97;;;;;;;;;;5033095;28;20033;-64
2021/01/06 11:42:56;;;;;;;6.67;3.20;;;;;;;;;;5033156;28;20025;-68
2021/01/06 11:45:24;;;;;;;4.60;2.80;;;;;;;;;;5032804;28;20040;-64
2021/01/06 11:47:52;;;;;;;7.47;3.20;;;;;;;;;;5031955;28;20033;-64
2021/01/06 11:50:32;;;;;;;3.60;2.40;;;;;;;;;;5032876;28;20462;-64
2021/01/06 11:53:17;;;;;;;4.77;2.87;;;;;;;;;;5033133;28;20033;-64
2021/01/06 11:55:43;;;;;;;3.60;2.00;;;;;;;;;;5033195;28;20033;-64
2021/01/06 11:58:09;;;;;;;4.93;2.00;;;;;;;;;;5032601;28;20053;-64
2021/01/06 12:00:41;;;;;;;3.50;2.00;;;;;;;;;;5031752;28;20029;-64
2021/01/06 12:03:07;;;;;;;2.70;2.10;;;;;;;;;;5032953;28;20414;-69
2021/01/06 12:05:52;;;;;;;6.17;3.20;;;;;;;;;;5032824;28;20033;-64
2021/01/06 12:08:24;;;;;;;4.67;2.47;;;;;;;;;;5033049;28;20053;-64
2021/01/06 12:11:19;;;;;;;4.25;2.63;;;;;;;;;;5033035;28;20025;-64
2021/01/06 12:13:45;;;;;;;4.90;2.30;;;;;;;;;;5032374;28;20456;-64
2021/01/06 12:16:11;;;;;;;6.40;2.40;;;;;;;;;;5032726;28;20029;-64
2021/01/06 12:18:37;;;;;;;6.60;3.00;;;;;;;;;;5031694;28;20495;-64
2021/01/06 12:21:20;;;;;;;3.27;2.20;;;;;;;;;;5031871;28;20025;-64
2021/01/06 12:23:46;;;;;;;4.78;2.75;;;;;;;;;;5032566;28;20060;-64
2021/01/06 12:26:30;;;;;;;2.73;1.70;;;;;;;;;;5032358;28;20033;-67
2021/01/06 12:28:57;;;;;;;2.80;1.43;;;;;;;;;;5032125;28;20056;-64
2021/01/06 12:31:38;;;;;;;3.43;2.53;;;;;;;;;;5029963;28;20047;-65
2021/01/06 12:34:07;;;;;;;9.53;6.40;;;;;;;;;;5029845;28;20022;-64
2021/01/06 12:36:35;;;;;;;7.90;5.10;;;;;;;;;;5012128;28;20113;-65
2021/01/06 12:39:36;;;;;;;6.03;3.63;;;;;;;;;;5012309;28;20072;-64
2021/01/06 12:42:06;;;;;;;4.93;3.30;;;;;;;;;;4990856;28;20443;-64
2021/01/06 12:44:33;;;;;;;5.00;3.20;;;;;;;;;;5008668;28;20049;-65
2021/01/06 12:47:11;;;;;;;3.17;2.10;;;;;;;;;;5012158;28;20116;-65
2021/01/06 12:50:03;;;;;;;6.50;2.93;;;;;;;;;;5011977;28;20026;-65
2021/01/06 12:52:35;;;;;;;11.60;6.50;;;;;;;;;;5011149;28;20073;-64
2021/01/06 12:55:08;;;;;;;17.13;10.95;;;;;;;;;;5012496;28;20430;-64
2021/01/06 12:57:46;;;;;;;8.20;5.90;;;;;;;;;;5012479;28;20049;-65
2021/01/06 13:00:22;;;;;;;6.13;3.77;;;;;;;;;;5015746;28;20064;-64
2021/01/06 13:02:48;;;;;;;5.77;3.90;;;;;;;;;;5014434;28;20544;-66
2021/01/06 13:05:17;;;;;;;4.73;3.17;;;;;;;;;;5014813;28;20049;-66
2021/01/06 13:07:48;;;;;;;3.90;2.37;;;;;;;;;;5014498;28;20071;-65
2021/01/06 13:10:17;;;;;;;3.80;2.70;;;;;;;;;;5015586;28;20402;-65
2021/01/06 13:12:48;;;;;;;5.57;2.80;;;;;;;;;;5015119;28;20410;-65
2021/01/06 13:15:26;;;;;;;3.83;2.63;;;;;;;;;;5015144;28;20549;-66
2021/01/06 13:18:04;;;;;;;3.70;2.50;;;;;;;;;;5014719;28;20042;-66
2021/01/06 13:20:42;;;;;;;4.00;2.70;;;;;;;;;;5014742;28;20102;-65
2021/01/06 13:23:14;;;;;;;6.27;3.63;;;;;;;;;;5014514;28;20447;-65
2021/01/06 13:25:41;;;;;;;3.50;2.50;;;;;;;;;;5014876;28;20022;-64
2021/01/06 13:28:10;;;;;;;8.00;3.73;;;;;;;;;;5014834;28;20022;-65
2021/01/06 13:30:36;;;;;;;6.40;4.40;;;;;;;;;;5015024;28;20053;-65
2021/01/06 13:33:18;;;;;;;6.90;5.10;;;;;;;;;;5015161;28;20034;-65
2021/01/06 13:36:06;;;;;;;5.77;4.60;;;;;;;;;;5014727;28;20436;-65
2021/01/06 13:38:37;;;;;;;7.20;5.53;;;;;;;;;;5015632;28;20113;-65
2021/01/06 13:41:33;;;;;;;8.83;6.47;;;;;;;;;;5014569;28;20038;-65
2021/01/06 13:44:04;;;;;;;8.23;6.73;;;;;;;;;;5009317;28;20515;-65
2021/01/06 13:46:49;;;;;;;6.67;5.80;;;;;;;;;;5014630;28;20037;-65
2021/01/06 13:49:27;;;;;;;5.87;4.70;;;;;;;;;;5015496;28;20252;-70
2021/01/06 13:52:12;;;;;;;7.10;4.37;;;;;;;;;;5014148;28;20041;-65
2021/01/06 13:54:41;;;;;;;7.07;5.60;;;;;;;;;;5012246;28;20030;-65
2021/01/06 13:57:11;;;;;;;5.13;4.37;;;;;;;;;;5010030;28;20026;-66
2021/01/06 13:59:50;;;;;;;5.00;3.60;;;;;;;;;;5010691;28;20087;-65
2021/01/06 14:02:21;;;;;;;6.10;4.13;;;;;;;;;;5028614;28;20033;-66
2021/01/06 14:04:50;;;;;;;10.03;6.33;;;;;;;;;;5033597;28;20018;-64
2021/01/06 14:07:25;;;;;;;8.77;5.07;;;;;;;;;;5033444;28;20545;-66
2021/01/06 14:10:01;;;;;;;6.93;4.83;;;;;;;;;;5033337;28;20463;-64
2021/01/06 14:12:48;;;;;;;8.57;5.40;;;;;;;;;;5033654;28;20037;-65
2021/01/06 14:15:23;;;;;;;7.57;4.50;;;;;;;;;;5033288;28;20037;-65
2021/01/06 14:18:08;;;;;;;7.20;3.37;;;;;;;;;;5033504;28;20042;-64
2021/01/06 14:20:43;;;;;;;4.37;3.17;;;;;;;;;;5034203;28;20029;-64
2021/01/06 14:23:27;;;;;;;5.70;3.20;;;;;;;;;;5032720;28;20108;-64
2021/01/06 14:25:55;;;;;;;5.37;3.60;;;;;;;;;;5030005;28;20117;-65
2021/01/06 14:28:27;;;;;;;4.23;3.20;;;;;;;;;;5029082;28;20100;-65
2021/01/06 14:30:56;;;;;;;4.13;3.00;;;;;;;;;;5032633;28;20048;-65
2021/01/06 14:33:47;;;;;;;3.80;3.20;;;;;;;;;;5033840;28;20030;-64
2021/01/06 14:36:19;;;;;;;3.53;2.13;;;;;;;;;;5031963;28;20033;-65
2021/01/06 14:38:53;;;;;;;4.97;2.40;;;;;;;;;;5032765;28;20065;-65
2021/01/06 14:41:25;;;;;;;5.73;2.63;;;;;;;;;;5033125;28;20030;-64
2021/01/06 14:44:10;;;;;;;5.20;4.30;;;;;;;;;;5032083;28;20496;-65
2021/01/06 14:47:03;;;;;;;7.60;3.67;;;;;;;;;;5031060;28;20041;-64
2021/01/06 14:49:34;;;;;;;11.70;3.40;;;;;;;;;;5015932;28;20033;-65
2021/01/06 14:52:15;;;;;;;4.90;3.20;;;;;;;;;;5032647;28;20355;-65
2021/01/06 14:55:00;;;;;;;5.57;2.40;;;;;;;;;;5032754;28;20060;-65
2021/01/06 14:57:26;;;;;;;3.43;2.10;;;;;;;;;;5033101;28;20045;-65
2021/01/06 15:00:18;;;;;;;3.93;2.80;;;;;;;;;;5033119;28;20513;-65
2021/01/06 15:02:47;;;;;;;4.10;2.87;;;;;;;;;;5017481;28;20044;-65
2021/01/06 15:05:25;;;;;;;3.20;2.20;;;;;;;;;;5033414;28;20162;-64
2021/01/06 15:08:01;;;;;;;3.17;1.57;;;;;;;;;;5032893;28;20060;-65
2021/01/06 15:10:29;;;;;;;4.30;2.60;;;;;;;;;;5033142;28;20108;-65
2021/01/06 15:13:00;;;;;;;6.20;2.97;;;;;;;;;;5033233;28;20029;-65